KBRY/BRY METAR and TAF weather

Enter ICAO airport designator
Station Type Date Time Source
KBRY METAR 2019/06/17 07:15 UTC NOAA

KBRY 170715Z AUTO 15003KT 10SM SCT001 18/18 A2992 RMK AO1


Station Type Date Time Source
KBRY Decoded METAR 2019/06/17 07:15 UTC NOAA

Station name not available
Jun 17, 2019 - 03:15 AM EDT / 2019.06.17 0715 UTC
Wind: from the SSE (150 degrees) at 3 MPH (3 KT):0
Visibility: 10 mile(s):0
Sky conditions: partly cloudy
Temperature: 64 F (18 C)
Dew Point: 64 F (18 C)
Relative Humidity: 100%
Pressure (altimeter): 29.92 in. Hg (1013 hPa)
ob: KBRY 170715Z AUTO 15003KT 10SM SCT001 18/18 A2992 RMK AO1
cycle: 7

Station Type Date Time Source
KBRY TAF UTC NOAA

Error!

Example: see airport list